sensor_id;sensor_type;location;lat;lon;timestamp;P1;durP1;ratioP1;P2;durP2;ratioP2
39982;SDS011;25670;44.782;10.356;2022-08-06T00:02:23;3.22;;;2.92;;
39982;SDS011;25670;44.782;10.356;2022-08-06T00:04:55;4.97;;;3.22;;
39982;SDS011;25670;44.782;10.356;2022-08-06T00:07:23;3.65;;;3.05;;
39982;SDS011;25670;44.782;10.356;2022-08-06T00:09:50;3.30;;;3.10;;
39982;SDS011;25670;44.782;10.356;2022-08-06T00:12:16;3.00;;;2.90;;
39982;SDS011;25670;44.782;10.356;2022-08-06T00:14:42;4.82;;;3.70;;
39982;SDS011;25670;44.782;10.356;2022-08-06T00:17:08;3.47;;;3.10;;
39982;SDS011;25670;44.782;10.356;2022-08-06T00:19:35;4.60;;;3.40;;
39982;SDS011;25670;44.782;10.356;2022-08-06T00:22:01;3.95;;;3.65;;
39982;SDS011;25670;44.782;10.356;2022-08-06T00:24:27;5.10;;;3.13;;
39982;SDS011;25670;44.782;10.356;2022-08-06T00:26:54;3.60;;;3.30;;
39982;SDS011;25670;44.782;10.356;2022-08-06T00:29:20;3.55;;;3.35;;
39982;SDS011;25670;44.782;10.356;2022-08-06T00:31:46;3.80;;;3.50;;
39982;SDS011;25670;44.782;10.356;2022-08-06T00:34:12;3.90;;;3.60;;
39982;SDS011;25670;44.782;10.356;2022-08-06T00:36:39;7.60;;;5.07;;
39982;SDS011;25670;44.782;10.356;2022-08-06T00:39:06;6.78;;;5.20;;
39982;SDS011;25670;44.782;10.356;2022-08-06T00:41:33;5.30;;;5.00;;
39982;SDS011;25670;44.782;10.356;2022-08-06T00:44:03;4.80;;;4.45;;
39982;SDS011;25670;44.782;10.356;2022-08-06T00:46:30;5.60;;;5.30;;
39982;SDS011;25670;44.782;10.356;2022-08-06T00:48:56;4.15;;;3.90;;
39982;SDS011;25670;44.782;10.356;2022-08-06T00:51:23;4.70;;;4.30;;
39982;SDS011;25670;44.782;10.356;2022-08-06T00:53:50;4.50;;;4.18;;
39982;SDS011;25670;44.782;10.356;2022-08-06T00:56:17;4.55;;;4.00;;
39982;SDS011;25670;44.782;10.356;2022-08-06T00:58:43;4.50;;;4.20;;
39982;SDS011;25670;44.782;10.356;2022-08-06T01:01:09;3.97;;;3.65;;
39982;SDS011;25670;44.782;10.356;2022-08-06T01:03:36;5.40;;;3.95;;
39982;SDS011;25670;44.782;10.356;2022-08-06T01:06:03;5.00;;;3.72;;
39982;SDS011;25670;44.782;10.356;2022-08-06T01:08:29;2.80;;;2.67;;
39982;SDS011;25670;44.782;10.356;2022-08-06T01:10:57;4.30;;;3.92;;
39982;SDS011;25670;44.782;10.356;2022-08-06T01:13:23;8.38;;;3.60;;
39982;SDS011;25670;44.782;10.356;2022-08-06T01:15:50;3.97;;;3.50;;
39982;SDS011;25670;44.782;10.356;2022-08-06T01:18:24;3.95;;;3.40;;
39982;SDS011;25670;44.782;10.356;2022-08-06T01:29:33;6.18;;;4.22;;
39982;SDS011;25670;44.782;10.356;2022-08-06T01:32:06;5.40;;;5.00;;
39982;SDS011;25670;44.782;10.356;2022-08-06T01:34:38;5.07;;;4.72;;
39982;SDS011;25670;44.782;10.356;2022-08-06T01:40:11;4.18;;;3.90;;
39982;SDS011;25670;44.782;10.356;2022-08-06T01:42:45;11.13;;;3.75;;
39982;SDS011;25670;44.782;10.356;2022-08-06T01:45:15;4.57;;;3.80;;
39982;SDS011;25670;44.782;10.356;2022-08-06T01:47:45;4.20;;;3.72;;
39982;SDS011;25670;44.782;10.356;2022-08-06T01:50:16;4.03;;;3.65;;
39982;SDS011;25670;44.782;10.356;2022-08-06T01:52:45;8.38;;;3.50;;
39982;SDS011;25670;44.782;10.356;2022-08-06T01:55:14;4.13;;;3.40;;
39982;SDS011;25670;44.782;10.356;2022-08-06T01:57:46;3.72;;;3.40;;
39982;SDS011;25670;44.782;10.356;2022-08-06T02:00:16;3.17;;;2.75;;
39982;SDS011;25670;44.782;10.356;2022-08-06T02:02:43;3.92;;;3.60;;
39982;SDS011;25670;44.782;10.356;2022-08-06T02:05:13;7.18;;;3.33;;
39982;SDS011;25670;44.782;10.356;2022-08-06T02:07:43;3.83;;;3.63;;
39982;SDS011;25670;44.782;10.356;2022-08-06T02:10:12;3.20;;;3.00;;
39982;SDS011;25670;44.782;10.356;2022-08-06T02:12:40;4.05;;;3.15;;
39982;SDS011;25670;44.782;10.356;2022-08-06T02:15:11;5.00;;;3.17;;
39982;SDS011;25670;44.782;10.356;2022-08-06T02:17:58;3.28;;;2.97;;
39982;SDS011;25670;44.782;10.356;2022-08-06T02:20:35;2.88;;;2.70;;
39982;SDS011;25670;44.782;10.356;2022-08-06T02:23:05;7.18;;;2.72;;
39982;SDS011;25670;44.782;10.356;2022-08-06T02:25:34;6.95;;;2.60;;
39982;SDS011;25670;44.782;10.356;2022-08-06T02:28:05;2.97;;;2.78;;
39982;SDS011;25670;44.782;10.356;2022-08-06T02:30:34;2.47;;;2.38;;
39982;SDS011;25670;44.782;10.356;2022-08-06T02:33:04;7.45;;;2.70;;
39982;SDS011;25670;44.782;10.356;2022-08-06T02:35:32;2.30;;;2.13;;
39982;SDS011;25670;44.782;10.356;2022-08-06T02:38:24;2.30;;;2.20;;
39982;SDS011;25670;44.782;10.356;2022-08-06T02:41:00;3.58;;;2.20;;
39982;SDS011;25670;44.782;10.356;2022-08-06T02:43:37;5.00;;;1.98;;
39982;SDS011;25670;44.782;10.356;2022-08-06T02:48:42;2.47;;;2.20;;
39982;SDS011;25670;44.782;10.356;2022-08-06T02:51:14;2.60;;;2.50;;
39982;SDS011;25670;44.782;10.356;2022-08-06T02:53:58;3.13;;;2.38;;
39982;SDS011;25670;44.782;10.356;2022-08-06T02:56:26;2.75;;;2.55;;
39982;SDS011;25670;44.782;10.356;2022-08-06T02:59:00;2.50;;;2.30;;
39982;SDS011;25670;44.782;10.356;2022-08-06T03:02:01;2.63;;;2.53;;
39982;SDS011;25670;44.782;10.356;2022-08-06T03:04:29;2.72;;;1.95;;
39982;SDS011;25670;44.782;10.356;2022-08-06T03:06:57;2.95;;;1.85;;
39982;SDS011;25670;44.782;10.356;2022-08-06T03:09:27;2.13;;;2.03;;
39982;SDS011;25670;44.782;10.356;2022-08-06T03:11:54;2.80;;;2.60;;
39982;SDS011;25670;44.782;10.356;2022-08-06T03:14:22;3.00;;;2.50;;
39982;SDS011;25670;44.782;10.356;2022-08-06T03:16:50;4.80;;;2.20;;
39982;SDS011;25670;44.782;10.356;2022-08-06T03:19:17;2.40;;;2.20;;
39982;SDS011;25670;44.782;10.356;2022-08-06T03:21:46;3.42;;;2.55;;
39982;SDS011;25670;44.782;10.356;2022-08-06T03:24:14;2.67;;;2.50;;
39982;SDS011;25670;44.782;10.356;2022-08-06T03:26:41;3.65;;;2.45;;
39982;SDS011;25670;44.782;10.356;2022-08-06T03:29:09;3.03;;;2.10;;
39982;SDS011;25670;44.782;10.356;2022-08-06T03:31:37;4.30;;;2.35;;
39982;SDS011;25670;44.782;10.356;2022-08-06T03:34:04;2.42;;;2.33;;
39982;SDS011;25670;44.782;10.356;2022-08-06T03:36:31;2.67;;;2.40;;
39982;SDS011;25670;44.782;10.356;2022-08-06T03:39:04;1.98;;;1.83;;
39982;SDS011;25670;44.782;10.356;2022-08-06T03:41:37;3.83;;;2.30;;
39982;SDS011;25670;44.782;10.356;2022-08-06T03:44:05;2.35;;;2.25;;
39982;SDS011;25670;44.782;10.356;2022-08-06T03:46:45;2.30;;;2.15;;
39982;SDS011;25670;44.782;10.356;2022-08-06T03:49:25;1.95;;;1.85;;
39982;SDS011;25670;44.782;10.356;2022-08-06T03:51:54;3.22;;;1.92;;
39982;SDS011;25670;44.782;10.356;2022-08-06T03:54:28;2.33;;;2.22;;
39982;SDS011;25670;44.782;10.356;2022-08-06T03:57:02;5.63;;;2.25;;
39982;SDS011;25670;44.782;10.356;2022-08-06T03:59:31;3.28;;;2.03;;
39982;SDS011;25670;44.782;10.356;2022-08-06T04:02:00;3.75;;;1.85;;
39982;SDS011;25670;44.782;10.356;2022-08-06T04:04:29;4.00;;;2.40;;
39982;SDS011;25670;44.782;10.356;2022-08-06T04:06:57;2.17;;;2.05;;
39982;SDS011;25670;44.782;10.356;2022-08-06T04:09:24;3.03;;;2.10;;
39982;SDS011;25670;44.782;10.356;2022-08-06T04:11:53;4.95;;;1.83;;
39982;SDS011;25670;44.782;10.356;2022-08-06T04:14:20;2.00;;;1.90;;
39982;SDS011;25670;44.782;10.356;2022-08-06T04:16:48;3.45;;;1.65;;
39982;SDS011;25670;44.782;10.356;2022-08-06T04:19:15;2.08;;;1.98;;
39982;SDS011;25670;44.782;10.356;2022-08-06T04:21:45;1.75;;;1.65;;
39982;SDS011;25670;44.782;10.356;2022-08-06T04:24:12;3.08;;;2.20;;
39982;SDS011;25670;44.782;10.356;2022-08-06T04:26:40;1.92;;;1.83;;
39982;SDS011;25670;44.782;10.356;2022-08-06T04:29:11;1.63;;;1.63;;
39982;SDS011;25670;44.782;10.356;2022-08-06T04:31:41;2.20;;;2.10;;
39982;SDS011;25670;44.782;10.356;2022-08-06T04:34:11;1.77;;;1.67;;
39982;SDS011;25670;44.782;10.356;2022-08-06T04:36:39;1.85;;;1.75;;
39982;SDS011;25670;44.782;10.356;2022-08-06T04:39:06;2.00;;;1.63;;
39982;SDS011;25670;44.782;10.356;2022-08-06T04:41:33;4.55;;;1.80;;
39982;SDS011;25670;44.782;10.356;2022-08-06T04:43:59;2.05;;;1.80;;
39982;SDS011;25670;44.782;10.356;2022-08-06T04:46:26;2.15;;;1.88;;
39982;SDS011;25670;44.782;10.356;2022-08-06T04:48:52;1.80;;;1.70;;
39982;SDS011;25670;44.782;10.356;2022-08-06T04:51:22;2.40;;;1.70;;
39982;SDS011;25670;44.782;10.356;2022-08-06T04:53:49;3.85;;;1.58;;
39982;SDS011;25670;44.782;10.356;2022-08-06T04:56:15;2.00;;;1.90;;
39982;SDS011;25670;44.782;10.356;2022-08-06T04:58:42;4.35;;;1.98;;
39982;SDS011;25670;44.782;10.356;2022-08-06T05:01:09;3.88;;;1.85;;
39982;SDS011;25670;44.782;10.356;2022-08-06T05:03:35;1.80;;;1.70;;
39982;SDS011;25670;44.782;10.356;2022-08-06T05:06:19;2.17;;;2.08;;
39982;SDS011;25670;44.782;10.356;2022-08-06T05:09:12;1.83;;;1.50;;
39982;SDS011;25670;44.782;10.356;2022-08-06T05:11:47;1.88;;;1.50;;
39982;SDS011;25670;44.782;10.356;2022-08-06T05:14:30;5.50;;;1.85;;
39982;SDS011;25670;44.782;10.356;2022-08-06T05:17:03;1.88;;;1.67;;
39982;SDS011;25670;44.782;10.356;2022-08-06T05:19:33;3.63;;;1.50;;
39982;SDS011;25670;44.782;10.356;2022-08-06T05:22:02;1.90;;;1.80;;
39982;SDS011;25670;44.782;10.356;2022-08-06T05:24:31;2.60;;;2.40;;
39982;SDS011;25670;44.782;10.356;2022-08-06T05:26:58;1.63;;;1.52;;
39982;SDS011;25670;44.782;10.356;2022-08-06T05:29:24;1.90;;;1.80;;
39982;SDS011;25670;44.782;10.356;2022-08-06T05:31:55;3.35;;;2.03;;
39982;SDS011;25670;44.782;10.356;2022-08-06T05:34:24;2.05;;;1.95;;
39982;SDS011;25670;44.782;10.356;2022-08-06T05:36:51;1.77;;;1.63;;
39982;SDS011;25670;44.782;10.356;2022-08-06T05:39:17;2.17;;;1.80;;
39982;SDS011;25670;44.782;10.356;2022-08-06T05:41:45;4.22;;;2.10;;
39982;SDS011;25670;44.782;10.356;2022-08-06T05:44:12;2.25;;;1.88;;
39982;SDS011;25670;44.782;10.356;2022-08-06T05:46:45;2.47;;;2.10;;
39982;SDS011;25670;44.782;10.356;2022-08-06T05:51:58;4.40;;;2.30;;
39982;SDS011;25670;44.782;10.356;2022-08-06T06:00:06;2.55;;;2.20;;
39982;SDS011;25670;44.782;10.356;2022-08-06T06:02:41;3.10;;;2.22;;
39982;SDS011;25670;44.782;10.356;2022-08-06T06:05:10;2.63;;;2.42;;
39982;SDS011;25670;44.782;10.356;2022-08-06T06:07:37;2.15;;;2.00;;
39982;SDS011;25670;44.782;10.356;2022-08-06T06:10:05;2.67;;;2.03;;
39982;SDS011;25670;44.782;10.356;2022-08-06T06:12:32;2.25;;;2.15;;
39982;SDS011;25670;44.782;10.356;2022-08-06T06:15:00;7.28;;;2.22;;
39982;SDS011;25670;44.782;10.356;2022-08-06T06:23:06;2.15;;;1.90;;
39982;SDS011;25670;44.782;10.356;2022-08-06T06:28:19;3.13;;;2.10;;
39982;SDS011;25670;44.782;10.356;2022-08-06T06:30:54;3.05;;;1.83;;
39982;SDS011;25670;44.782;10.356;2022-08-06T06:33:34;2.35;;;2.15;;
39982;SDS011;25670;44.782;10.356;2022-08-06T06:36:03;2.70;;;2.50;;
39982;SDS011;25670;44.782;10.356;2022-08-06T06:38:42;2.15;;;1.95;;
39982;SDS011;25670;44.782;10.356;2022-08-06T06:44:24;2.78;;;1.55;;
39982;SDS011;25670;44.782;10.356;2022-08-06T06:46:56;1.77;;;1.67;;
39982;SDS011;25670;44.782;10.356;2022-08-06T06:49:34;3.90;;;2.10;;
39982;SDS011;25670;44.782;10.356;2022-08-06T06:52:03;2.72;;;2.50;;
39982;SDS011;25670;44.782;10.356;2022-08-06T06:54:37;2.20;;;2.10;;
39982;SDS011;25670;44.782;10.356;2022-08-06T06:57:07;3.72;;;1.92;;
39982;SDS011;25670;44.782;10.356;2022-08-06T06:59:38;2.28;;;2.17;;
39982;SDS011;25670;44.782;10.356;2022-08-06T07:02:09;1.95;;;1.85;;
39982;SDS011;25670;44.782;10.356;2022-08-06T07:04:41;2.03;;;1.92;;
39982;SDS011;25670;44.782;10.356;2022-08-06T07:07:08;3.42;;;2.25;;
39982;SDS011;25670;44.782;10.356;2022-08-06T07:09:35;4.75;;;2.40;;
39982;SDS011;25670;44.782;10.356;2022-08-06T07:12:02;2.30;;;2.20;;
39982;SDS011;25670;44.782;10.356;2022-08-06T07:14:30;6.30;;;2.20;;
39982;SDS011;25670;44.782;10.356;2022-08-06T07:17:00;3.40;;;1.90;;
39982;SDS011;25670;44.782;10.356;2022-08-06T07:19:28;1.98;;;1.63;;
39982;SDS011;25670;44.782;10.356;2022-08-06T07:21:59;1.80;;;1.63;;
39982;SDS011;25670;44.782;10.356;2022-08-06T07:24:26;5.13;;;1.98;;
39982;SDS011;25670;44.782;10.356;2022-08-06T07:26:56;3.17;;;1.63;;
39982;SDS011;25670;44.782;10.356;2022-08-06T07:29:24;5.95;;;1.63;;
39982;SDS011;25670;44.782;10.356;2022-08-06T07:31:53;2.00;;;1.85;;
39982;SDS011;25670;44.782;10.356;2022-08-06T07:34:21;2.00;;;1.90;;
39982;SDS011;25670;44.782;10.356;2022-08-06T07:36:51;2.53;;;1.65;;
39982;SDS011;25670;44.782;10.356;2022-08-06T07:39:26;1.92;;;1.63;;
39982;SDS011;25670;44.782;10.356;2022-08-06T07:41:55;4.15;;;1.60;;
39982;SDS011;25670;44.782;10.356;2022-08-06T07:44:25;2.00;;;1.90;;
39982;SDS011;25670;44.782;10.356;2022-08-06T07:46:53;2.17;;;2.00;;
39982;SDS011;25670;44.782;10.356;2022-08-06T07:49:24;4.45;;;2.40;;
39982;SDS011;25670;44.782;10.356;2022-08-06T07:51:55;2.45;;;1.63;;
39982;SDS011;25670;44.782;10.356;2022-08-06T07:54:23;1.63;;;1.50;;
39982;SDS011;25670;44.782;10.356;2022-08-06T07:57:03;8.18;;;2.55;;
39982;SDS011;25670;44.782;10.356;2022-08-06T07:59:31;2.47;;;1.95;;
39982;SDS011;25670;44.782;10.356;2022-08-06T08:01:58;8.13;;;1.67;;
39982;SDS011;25670;44.782;10.356;2022-08-06T08:04:28;3.17;;;1.98;;
39982;SDS011;25670;44.782;10.356;2022-08-06T08:07:14;1.77;;;1.67;;
39982;SDS011;25670;44.782;10.356;2022-08-06T08:09:44;4.10;;;1.95;;
39982;SDS011;25670;44.782;10.356;2022-08-06T08:12:12;2.90;;;1.58;;
39982;SDS011;25670;44.782;10.356;2022-08-06T08:14:43;5.07;;;1.83;;
39982;SDS011;25670;44.782;10.356;2022-08-06T08:17:11;4.45;;;1.85;;
39982;SDS011;25670;44.782;10.356;2022-08-06T08:19:37;6.65;;;2.05;;
39982;SDS011;25670;44.782;10.356;2022-08-06T08:22:14;1.80;;;1.70;;
39982;SDS011;25670;44.782;10.356;2022-08-06T08:24:42;4.35;;;2.00;;
39982;SDS011;25670;44.782;10.356;2022-08-06T08:27:11;6.03;;;1.60;;
39982;SDS011;25670;44.782;10.356;2022-08-06T08:29:38;1.73;;;1.63;;
39982;SDS011;25670;44.782;10.356;2022-08-06T08:32:06;2.08;;;1.98;;
39982;SDS011;25670;44.782;10.356;2022-08-06T08:34:34;1.73;;;1.63;;
39982;SDS011;25670;44.782;10.356;2022-08-06T08:37:01;3.15;;;1.73;;
39982;SDS011;25670;44.782;10.356;2022-08-06T08:39:28;2.05;;;1.70;;
39982;SDS011;25670;44.782;10.356;2022-08-06T08:44:42;3.45;;;1.60;;
39982;SDS011;25670;44.782;10.356;2022-08-06T08:47:10;3.92;;;2.00;;
39982;SDS011;25670;44.782;10.356;2022-08-06T08:49:40;6.32;;;2.50;;
39982;SDS011;25670;44.782;10.356;2022-08-06T08:52:12;2.43;;;2.23;;
39982;SDS011;25670;44.782;10.356;2022-08-06T08:54:42;9.57;;;2.63;;
39982;SDS011;25670;44.782;10.356;2022-08-06T08:57:13;3.20;;;2.00;;
39982;SDS011;25670;44.782;10.356;2022-08-06T08:59:41;2.58;;;2.38;;
39982;SDS011;25670;44.782;10.356;2022-08-06T09:02:09;2.75;;;2.40;;
39982;SDS011;25670;44.782;10.356;2022-08-06T09:04:37;10.30;;;3.00;;
39982;SDS011;25670;44.782;10.356;2022-08-06T09:07:04;5.00;;;3.55;;
39982;SDS011;25670;44.782;10.356;2022-08-06T09:09:33;4.05;;;2.63;;
39982;SDS011;25670;44.782;10.356;2022-08-06T09:12:01;9.43;;;3.60;;
39982;SDS011;25670;44.782;10.356;2022-08-06T09:14:27;3.38;;;2.90;;
39982;SDS011;25670;44.782;10.356;2022-08-06T09:16:53;3.05;;;2.75;;
39982;SDS011;25670;44.782;10.356;2022-08-06T09:19:20;2.70;;;2.50;;
39982;SDS011;25670;44.782;10.356;2022-08-06T09:21:46;3.25;;;2.55;;
39982;SDS011;25670;44.782;10.356;2022-08-06T09:24:13;5.65;;;2.20;;
39982;SDS011;25670;44.782;10.356;2022-08-06T09:27:00;5.38;;;2.38;;
39982;SDS011;25670;44.782;10.356;2022-08-06T09:29:30;3.25;;;3.05;;
39982;SDS011;25670;44.782;10.356;2022-08-06T09:31:57;7.13;;;2.60;;
39982;SDS011;25670;44.782;10.356;2022-08-06T09:34:32;5.38;;;2.60;;
39982;SDS011;25670;44.782;10.356;2022-08-06T09:36:59;3.97;;;2.13;;
39982;SDS011;25670;44.782;10.356;2022-08-06T09:39:44;2.42;;;2.20;;
39982;SDS011;25670;44.782;10.356;2022-08-06T09:42:11;6.65;;;2.40;;
39982;SDS011;25670;44.782;10.356;2022-08-06T09:44:37;9.80;;;2.30;;
39982;SDS011;25670;44.782;10.356;2022-08-06T09:47:05;2.30;;;2.20;;
39982;SDS011;25670;44.782;10.356;2022-08-06T09:49:42;3.60;;;2.15;;
39982;SDS011;25670;44.782;10.356;2022-08-06T09:52:14;7.80;;;1.92;;
39982;SDS011;25670;44.782;10.356;2022-08-06T09:54:42;4.45;;;2.40;;
39982;SDS011;25670;44.782;10.356;2022-08-06T09:57:08;5.18;;;2.30;;
39982;SDS011;25670;44.782;10.356;2022-08-06T09:59:42;2.22;;;2.08;;
39982;SDS011;25670;44.782;10.356;2022-08-06T10:02:13;2.63;;;2.08;;
39982;SDS011;25670;44.782;10.356;2022-08-06T10:07:07;4.65;;;2.05;;
39982;SDS011;25670;44.782;10.356;2022-08-06T10:09:33;9.02;;;2.42;;
39982;SDS011;25670;44.782;10.356;2022-08-06T10:12:07;5.75;;;1.58;;
39982;SDS011;25670;44.782;10.356;2022-08-06T10:14:43;2.25;;;2.08;;
39982;SDS011;25670;44.782;10.356;2022-08-06T10:19:37;4.32;;;1.98;;
39982;SDS011;25670;44.782;10.356;2022-08-06T10:22:11;1.88;;;1.63;;
39982;SDS011;25670;44.782;10.356;2022-08-06T10:24:40;2.92;;;2.00;;
39982;SDS011;25670;44.782;10.356;2022-08-06T10:27:12;2.47;;;2.20;;
39982;SDS011;25670;44.782;10.356;2022-08-06T10:29:50;5.38;;;1.85;;
39982;SDS011;25670;44.782;10.356;2022-08-06T10:32:29;1.95;;;1.63;;
39982;SDS011;25670;44.782;10.356;2022-08-06T10:35:04;2.15;;;2.05;;
39982;SDS011;25670;44.782;10.356;2022-08-06T10:37:33;2.28;;;1.70;;
39982;SDS011;25670;44.782;10.356;2022-08-06T10:40:03;3.50;;;2.28;;
39982;SDS011;25670;44.782;10.356;2022-08-06T10:42:30;6.22;;;1.63;;
39982;SDS011;25670;44.782;10.356;2022-08-06T10:44:56;4.82;;;1.90;;
39982;SDS011;25670;44.782;10.356;2022-08-06T10:47:25;5.32;;;1.80;;
39982;SDS011;25670;44.782;10.356;2022-08-06T10:49:54;8.43;;;2.08;;
39982;SDS011;25670;44.782;10.356;2022-08-06T10:52:21;4.80;;;2.22;;
39982;SDS011;25670;44.782;10.356;2022-08-06T10:54:48;4.00;;;2.10;;
39982;SDS011;25670;44.782;10.356;2022-08-06T10:57:16;9.02;;;2.45;;
39982;SDS011;25670;44.782;10.356;2022-08-06T10:59:43;3.90;;;2.25;;
39982;SDS011;25670;44.782;10.356;2022-08-06T11:03:01;2.72;;;1.95;;
39982;SDS011;25670;44.782;10.356;2022-08-06T11:05:00;3.80;;;2.10;;
39982;SDS011;25670;44.782;10.356;2022-08-06T11:13:15;4.85;;;1.80;;
39982;SDS011;25670;44.782;10.356;2022-08-06T11:15:44;2.13;;;1.92;;
39982;SDS011;25670;44.782;10.356;2022-08-06T11:18:11;4.97;;;2.00;;
39982;SDS011;25670;44.782;10.356;2022-08-06T11:20:39;3.33;;;1.85;;
39982;SDS011;25670;44.782;10.356;2022-08-06T11:25:40;3.50;;;2.20;;
39982;SDS011;25670;44.782;10.356;2022-08-06T11:30:53;2.33;;;2.22;;
39982;SDS011;25670;44.782;10.356;2022-08-06T11:33:57;5.40;;;2.30;;
39982;SDS011;25670;44.782;10.356;2022-08-06T11:36:10;5.10;;;2.38;;
39982;SDS011;25670;44.782;10.356;2022-08-06T11:43:48;2.05;;;1.90;;
39982;SDS011;25670;44.782;10.356;2022-08-06T11:54:13;5.30;;;2.85;;
39982;SDS011;25670;44.782;10.356;2022-08-06T11:59:35;3.45;;;2.17;;
39982;SDS011;25670;44.782;10.356;2022-08-06T12:02:07;2.70;;;2.47;;
39982;SDS011;25670;44.782;10.356;2022-08-06T12:14:55;2.20;;;1.95;;
39982;SDS011;25670;44.782;10.356;2022-08-06T12:17:23;4.05;;;1.80;;
39982;SDS011;25670;44.782;10.356;2022-08-06T12:19:52;8.52;;;2.10;;
39982;SDS011;25670;44.782;10.356;2022-08-06T12:22:21;3.50;;;1.58;;
39982;SDS011;25670;44.782;10.356;2022-08-06T12:24:50;1.83;;;1.73;;
39982;SDS011;25670;44.782;10.356;2022-08-06T12:27:20;4.10;;;1.67;;
39982;SDS011;25670;44.782;10.356;2022-08-06T12:29:53;2.78;;;1.92;;
39982;SDS011;25670;44.782;10.356;2022-08-06T12:34:54;2.22;;;1.95;;
39982;SDS011;25670;44.782;10.356;2022-08-06T12:37:32;1.70;;;1.55;;
39982;SDS011;25670;44.782;10.356;2022-08-06T12:40:20;2.75;;;1.83;;
39982;SDS011;25670;44.782;10.356;2022-08-06T12:42:52;2.67;;;1.60;;
39982;SDS011;25670;44.782;10.356;2022-08-06T12:45:29;4.50;;;2.42;;
39982;SDS011;25670;44.782;10.356;2022-08-06T12:48:00;3.47;;;1.85;;
39982;SDS011;25670;44.782;10.356;2022-08-06T12:50:28;3.45;;;2.08;;
39982;SDS011;25670;44.782;10.356;2022-08-06T12:53:05;2.10;;;1.95;;
39982;SDS011;25670;44.782;10.356;2022-08-06T12:58:08;2.30;;;2.13;;
39982;SDS011;25670;44.782;10.356;2022-08-06T13:00:37;4.15;;;1.95;;
39982;SDS011;25670;44.782;10.356;2022-08-06T13:03:06;3.72;;;1.75;;
39982;SDS011;25670;44.782;10.356;2022-08-06T13:05:34;5.18;;;2.00;;
39982;SDS011;25670;44.782;10.356;2022-08-06T13:08:01;6.53;;;1.85;;
39982;SDS011;25670;44.782;10.356;2022-08-06T13:10:27;1.75;;;1.70;;
39982;SDS011;25670;44.782;10.356;2022-08-06T13:12:58;2.22;;;2.00;;
39982;SDS011;25670;44.782;10.356;2022-08-06T13:15:29;2.28;;;1.67;;
39982;SDS011;25670;44.782;10.356;2022-08-06T13:18:15;4.63;;;1.83;;
39982;SDS011;25670;44.782;10.356;2022-08-06T13:20:43;2.33;;;1.65;;
39982;SDS011;25670;44.782;10.356;2022-08-06T13:23:13;2.78;;;2.05;;
39982;SDS011;25670;44.782;10.356;2022-08-06T13:25:47;2.13;;;1.90;;
39982;SDS011;25670;44.782;10.356;2022-08-06T13:28:19;9.07;;;2.10;;
39982;SDS011;25670;44.782;10.356;2022-08-06T13:30:47;2.58;;;2.13;;
39982;SDS011;25670;44.782;10.356;2022-08-06T13:33:14;2.30;;;1.70;;
39982;SDS011;25670;44.782;10.356;2022-08-06T13:35:52;6.78;;;2.58;;
39982;SDS011;25670;44.782;10.356;2022-08-06T13:38:33;3.35;;;2.00;;
39982;SDS011;25670;44.782;10.356;2022-08-06T13:41:01;5.03;;;2.10;;
39982;SDS011;25670;44.782;10.356;2022-08-06T13:43:38;3.05;;;2.03;;
39982;SDS011;25670;44.782;10.356;2022-08-06T13:46:08;5.88;;;2.00;;
39982;SDS011;25670;44.782;10.356;2022-08-06T13:48:41;2.70;;;1.70;;
39982;SDS011;25670;44.782;10.356;2022-08-06T13:51:11;2.65;;;2.20;;
39982;SDS011;25670;44.782;10.356;2022-08-06T13:53:38;11.15;;;1.88;;
39982;SDS011;25670;44.782;10.356;2022-08-06T13:56:04;2.70;;;2.50;;
39982;SDS011;25670;44.782;10.356;2022-08-06T13:58:31;8.23;;;2.28;;
39982;SDS011;25670;44.782;10.356;2022-08-06T14:00:57;4.80;;;2.00;;
39982;SDS011;25670;44.782;10.356;2022-08-06T14:03:24;2.75;;;2.00;;
39982;SDS011;25670;44.782;10.356;2022-08-06T14:05:51;5.05;;;1.90;;
39982;SDS011;25670;44.782;10.356;2022-08-06T14:08:18;2.45;;;2.25;;
39982;SDS011;25670;44.782;10.356;2022-08-06T14:10:45;5.55;;;2.22;;
39982;SDS011;25670;44.782;10.356;2022-08-06T14:13:11;2.60;;;2.13;;
39982;SDS011;25670;44.782;10.356;2022-08-06T14:18:11;2.70;;;2.08;;
39982;SDS011;25670;44.782;10.356;2022-08-06T14:20:37;4.10;;;2.03;;
39982;SDS011;25670;44.782;10.356;2022-08-06T14:23:04;3.15;;;2.45;;
39982;SDS011;25670;44.782;10.356;2022-08-06T14:25:30;2.80;;;2.60;;
39982;SDS011;25670;44.782;10.356;2022-08-06T14:27:56;2.40;;;1.98;;
39982;SDS011;25670;44.782;10.356;2022-08-06T14:30:23;3.20;;;2.70;;
39982;SDS011;25670;44.782;10.356;2022-08-06T14:32:49;36.22;;;4.68;;
39982;SDS011;25670;44.782;10.356;2022-08-06T14:35:16;5.80;;;2.60;;
39982;SDS011;25670;44.782;10.356;2022-08-06T14:37:43;7.53;;;2.40;;
39982;SDS011;25670;44.782;10.356;2022-08-06T14:40:10;4.22;;;2.17;;
39982;SDS011;25670;44.782;10.356;2022-08-06T14:42:37;2.83;;;2.30;;
39982;SDS011;25670;44.782;10.356;2022-08-06T14:45:23;2.78;;;2.47;;
39982;SDS011;25670;44.782;10.356;2022-08-06T14:47:49;2.65;;;2.25;;
39982;SDS011;25670;44.782;10.356;2022-08-06T14:50:17;3.85;;;1.95;;
39982;SDS011;25670;44.782;10.356;2022-08-06T14:52:44;2.03;;;1.75;;
39982;SDS011;25670;44.782;10.356;2022-08-06T14:55:11;6.55;;;2.03;;
39982;SDS011;25670;44.782;10.356;2022-08-06T14:57:39;5.38;;;1.67;;
39982;SDS011;25670;44.782;10.356;2022-08-06T15:00:06;41.03;;;5.35;;
39982;SDS011;25670;44.782;10.356;2022-08-06T15:02:53;4.38;;;1.92;;
39982;SDS011;25670;44.782;10.356;2022-08-06T15:05:20;8.70;;;2.20;;
39982;SDS011;25670;44.782;10.356;2022-08-06T15:07:46;2.75;;;2.03;;
39982;SDS011;25670;44.782;10.356;2022-08-06T15:10:13;4.25;;;2.50;;
39982;SDS011;25670;44.782;10.356;2022-08-06T15:12:39;6.72;;;2.33;;
39982;SDS011;25670;44.782;10.356;2022-08-06T15:15:05;3.10;;;1.70;;
39982;SDS011;25670;44.782;10.356;2022-08-06T15:17:32;2.60;;;1.98;;
39982;SDS011;25670;44.782;10.356;2022-08-06T15:19:58;3.40;;;2.08;;
39982;SDS011;25670;44.782;10.356;2022-08-06T15:22:25;4.75;;;1.60;;
39982;SDS011;25670;44.782;10.356;2022-08-06T15:24:51;2.13;;;1.92;;
39982;SDS011;25670;44.782;10.356;2022-08-06T15:27:17;3.17;;;2.20;;
39982;SDS011;25670;44.782;10.356;2022-08-06T15:29:46;4.72;;;2.25;;
39982;SDS011;25670;44.782;10.356;2022-08-06T15:32:12;4.78;;;1.83;;
39982;SDS011;25670;44.782;10.356;2022-08-06T15:34:39;2.13;;;2.03;;
39982;SDS011;25670;44.782;10.356;2022-08-06T15:37:05;3.08;;;1.92;;
39982;SDS011;25670;44.782;10.356;2022-08-06T15:39:32;7.47;;;1.75;;
39982;SDS011;25670;44.782;10.356;2022-08-06T15:42:00;3.47;;;1.75;;
39982;SDS011;25670;44.782;10.356;2022-08-06T15:44:27;3.67;;;1.80;;
39982;SDS011;25670;44.782;10.356;2022-08-06T15:46:53;2.47;;;1.80;;
39982;SDS011;25670;44.782;10.356;2022-08-06T15:49:19;3.15;;;1.65;;
39982;SDS011;25670;44.782;10.356;2022-08-06T15:51:45;3.13;;;1.60;;
39982;SDS011;25670;44.782;10.356;2022-08-06T15:54:11;1.70;;;1.60;;
39982;SDS011;25670;44.782;10.356;2022-08-06T15:56:38;2.65;;;1.73;;
39982;SDS011;25670;44.782;10.356;2022-08-06T15:59:04;5.88;;;2.15;;
39982;SDS011;25670;44.782;10.356;2022-08-06T16:01:31;2.42;;;1.90;;
39982;SDS011;25670;44.782;10.356;2022-08-06T16:03:58;2.15;;;2.05;;
39982;SDS011;25670;44.782;10.356;2022-08-06T16:06:24;4.68;;;2.00;;
39982;SDS011;25670;44.782;10.356;2022-08-06T16:08:50;1.90;;;1.80;;
39982;SDS011;25670;44.782;10.356;2022-08-06T16:11:17;5.05;;;1.83;;
39982;SDS011;25670;44.782;10.356;2022-08-06T16:13:44;3.08;;;1.85;;
39982;SDS011;25670;44.782;10.356;2022-08-06T16:16:10;2.33;;;2.13;;